Time;durP1;ratioP1;P1;durP2;ratioP2;P2;SDS_P1;SDS_P2;PMS_P1;PMS_P2;Temp;Humidity;BMP_temperature;BMP_pressure;BME280_temperature;BME280_humidity;BME280_pressure;Samples;Min_cycle;Max_cycle;Signal;HPM_P1;HPM_P2
2022/11/22 00:00:34;;;;;;;34.55;26.30;;;;;;;4.59;60.94;99539.53;4987431;28;119604;-76
2022/11/22 00:03:04;;;;;;;35.55;26.55;;;;;;;4.60;60.67;99543.78;4968389;28;119881;-76
2022/11/22 00:05:30;;;;;;;34.63;26.10;;;;;;;4.64;60.76;99536.25;4989590;28;119696;-77
2022/11/22 00:07:56;;;;;;;35.35;26.05;;;;;;;4.66;60.36;99542.03;4990835;28;120416;-77
2022/11/22 00:10:22;;;;;;;33.15;25.42;;;;;;;4.67;60.12;99538.09;4974168;28;119189;-77
2022/11/22 00:12:48;;;;;;;33.73;25.87;;;;;;;4.72;60.43;99540.25;4984279;28;119439;-76
2022/11/22 00:15:33;;;;;;;35.70;26.60;;;;;;;4.74;60.28;99535.19;4971715;28;120437;-76
2022/11/22 00:17:59;;;;;;;33.35;26.15;;;;;;;4.74;60.08;99524.31;4953709;28;119374;-76
2022/11/22 00:20:25;;;;;;;35.78;25.90;;;;;;;4.69;60.32;99518.66;4976282;28;119430;-77
2022/11/22 00:22:51;;;;;;;34.13;25.77;;;;;;;4.83;60.04;99524.38;4995353;28;119880;-77
2022/11/22 00:25:17;;;;;;;33.10;25.73;;;;;;;4.86;60.12;99518.06;4987664;28;119701;-77
2022/11/22 00:27:43;;;;;;;32.67;25.60;;;;;;;4.86;59.82;99507.22;4963432;28;119290;-76
2022/11/22 00:30:15;;;;;;;33.33;25.73;;;;;;;4.82;59.54;99495.72;4951389;28;119418;-77
2022/11/22 00:32:40;;;;;;;33.13;25.10;;;;;;;4.88;59.60;99493.94;4982041;28;119719;-76
2022/11/22 00:35:07;;;;;;;33.20;24.80;;;;;;;4.84;59.10;99485.16;4988673;28;120074;-76
2022/11/22 00:37:36;;;;;;;32.20;25.23;;;;;;;4.89;59.54;99484.59;4983373;28;119611;-76
2022/11/22 00:40:03;;;;;;;31.63;24.75;;;;;;;4.89;59.55;99495.47;4990733;28;119261;-77
2022/11/22 00:42:29;;;;;;;31.45;24.85;;;;;;;4.90;59.49;99491.53;4991732;28;119916;-78
2022/11/22 00:44:55;;;;;;;31.67;24.88;;;;;;;4.89;59.67;99484.59;4980795;28;119531;-77
2022/11/22 00:47:20;;;;;;;31.80;24.73;;;;;;;4.91;59.42;99489.59;4967356;28;120666;-77
2022/11/22 00:49:46;;;;;;;34.40;25.93;;;;;;;4.89;59.58;99487.31;4990949;27;119299;-77
2022/11/22 00:52:13;;;;;;;33.20;25.92;;;;;;;4.89;59.78;99495.47;4991397;28;119605;-76
2022/11/22 00:54:39;;;;;;;33.53;25.90;;;;;;;4.99;59.52;99501.75;4967521;28;120288;-77
2022/11/22 00:57:05;;;;;;;33.25;25.40;;;;;;;4.98;59.76;99507.63;4977388;28;119722;-76
2022/11/22 00:59:38;;;;;;;33.60;25.38;;;;;;;5.02;59.78;99510.97;4985694;28;119268;-77
2022/11/22 01:02:04;;;;;;;32.83;25.23;;;;;;;5.00;59.34;99500.53;4964013;28;119262;-77
2022/11/22 01:04:29;;;;;;;33.63;26.17;;;;;;;5.01;59.51;99504.03;4972615;28;119679;-76
2022/11/22 01:06:55;;;;;;;34.80;26.45;;;;;;;5.00;59.91;99500.53;4963459;28;120065;-76
2022/11/22 01:09:22;;;;;;;33.30;25.70;;;;;;;5.05;59.21;99504.66;4989630;28;119270;-76
2022/11/22 01:11:49;;;;;;;33.65;25.98;;;;;;;5.01;59.75;99504.78;4991667;28;119496;-77
2022/11/22 01:14:18;;;;;;;34.13;26.47;;;;;;;5.01;59.50;99498.59;4989760;28;119985;-77
2022/11/22 01:16:44;;;;;;;33.03;25.55;;;;;;;5.07;59.35;99507.69;4989239;28;119425;-76
2022/11/22 01:19:10;;;;;;;33.17;25.60;;;;;;;4.99;59.55;99495.56;4980100;28;119606;-76
2022/11/22 01:21:35;;;;;;;32.95;25.45;;;;;;;4.98;59.61;99488.59;4972816;28;119302;-75
2022/11/22 01:24:01;;;;;;;32.17;25.50;;;;;;;4.91;59.43;99476.75;4981798;28;119734;-77
2022/11/22 01:26:27;;;;;;;33.33;26.00;;;;;;;4.90;59.40;99482.63;4969952;28;119597;-77
2022/11/22 01:28:53;;;;;;;34.45;26.80;;;;;;;4.89;59.50;99476.44;4969713;28;120608;-77
2022/11/22 01:31:18;;;;;;;33.70;26.80;;;;;;;4.93;59.13;99468.91;4985622;28;119651;-76
2022/11/22 01:33:44;;;;;;;33.58;25.25;;;;;;;4.90;59.38;99450.03;4991929;28;119901;-76
2022/11/22 01:36:10;;;;;;;32.83;25.53;;;;;;;4.89;59.52;99451.97;4990707;28;119710;-77
2022/11/22 01:38:35;;;;;;;32.87;25.27;;;;;;;4.94;59.59;99472.41;4991038;28;119790;-76
2022/11/22 01:41:01;;;;;;;33.73;26.07;;;;;;;4.94;60.08;99459.56;4977480;28;119437;-77
2022/11/22 01:43:28;;;;;;;34.03;25.98;;;;;;;5.00;59.51;99467.19;4993421;28;119324;-76
2022/11/22 01:46:01;;;;;;;33.42;26.23;;;;;;;4.99;59.59;99465.66;4980826;28;120086;-76
2022/11/22 01:48:37;;;;;;;34.63;26.80;;;;;;;5.01;59.25;99468.69;4968836;28;119490;-77
2022/11/22 01:51:14;;;;;;;36.30;27.55;;;;;;;4.96;59.58;99455.66;4991504;28;119346;-77
2022/11/22 01:53:40;;;;;;;33.50;26.47;;;;;;;4.94;59.53;99459.56;4987266;28;119371;-77
2022/11/22 01:56:10;;;;;;;35.65;27.05;;;;;;;5.00;59.68;99467.94;4982092;28;119771;-77
2022/11/22 01:58:40;;;;;;;35.20;27.60;;;;;;;4.94;59.71;99454.13;4976328;28;120114;-77
2022/11/22 02:01:31;;;;;;;35.87;28.10;;;;;;;4.91;59.80;99444.16;4964314;28;120111;-77
2022/11/22 02:03:59;;;;;;;36.05;27.45;;;;;;;5.02;59.76;99454.66;4981076;28;119753;-77
2022/11/22 02:06:50;;;;;;;36.50;28.27;;;;;;;5.02;59.76;99453.91;4987924;28;119621;-77
2022/11/22 02:09:17;;;;;;;36.13;27.95;;;;;;;4.98;59.47;99437.72;4984187;28;119377;-77
2022/11/22 02:11:47;;;;;;;37.05;29.35;;;;;;;4.99;59.01;99450.13;4977835;28;119402;-77
2022/11/22 02:14:17;;;;;;;36.13;28.45;;;;;;;5.00;60.21;99440.00;4975250;28;119702;-77
2022/11/22 02:16:46;;;;;;;37.08;29.25;;;;;;;5.03;59.58;99430.97;4982993;28;119323;-77
2022/11/22 02:19:18;;;;;;;36.70;28.58;;;;;;;5.06;59.44;99443.66;4989431;28;119443;-77
2022/11/22 02:21:49;;;;;;;39.53;30.08;;;;;;;5.01;59.89;99442.28;4975547;28;119304;-77
2022/11/22 02:24:20;;;;;;;40.20;30.20;;;;;;;5.09;59.62;99459.84;4989383;28;119271;-77
2022/11/22 02:26:46;;;;;;;37.95;29.80;;;;;;;5.09;59.36;99446.25;4984711;28;119184;-77
2022/11/22 02:29:12;;;;;;;36.90;29.80;;;;;;;5.13;59.38;99440.69;4960212;28;120554;-77
2022/11/22 02:31:44;;;;;;;39.38;30.50;;;;;;;5.10;59.29;99422.53;4988237;28;119345;-77
2022/11/22 02:34:11;;;;;;;39.03;30.77;;;;;;;5.09;59.27;99431.91;4974411;28;119663;-77
2022/11/22 02:36:47;;;;;;;38.83;30.08;;;;;;;5.11;59.08;99434.94;4988159;28;119531;-77
2022/11/22 02:39:16;;;;;;;38.42;30.55;;;;;;;5.06;59.78;99419.19;4994340;28;119261;-77
2022/11/22 02:41:43;;;;;;;37.72;30.35;;;;;;;5.09;59.76;99410.91;4974088;28;121826;-77
2022/11/22 02:44:11;;;;;;;38.60;30.02;;;;;;;5.10;59.41;99425.28;4982491;28;119431;-77
2022/11/22 02:46:48;;;;;;;39.13;30.95;;;;;;;5.17;59.33;99416.84;4981563;28;119913;-77
2022/11/22 02:49:19;;;;;;;39.13;31.43;;;;;;;5.21;59.48;99412.06;4963388;28;119353;-77
2022/11/22 02:51:46;;;;;;;39.67;31.00;;;;;;;5.21;59.76;99407.38;4982425;28;119714;-77
2022/11/22 02:54:11;;;;;;;39.65;31.15;;;;;;;5.21;60.02;99407.38;4972473;28;119439;-76
2022/11/22 02:56:37;;;;;;;41.30;32.08;;;;;;;5.29;59.78;99413.31;4990537;28;120243;-76
2022/11/22 02:59:03;;;;;;;39.63;31.40;;;;;;;5.30;59.95;99417.53;4985237;28;119513;-76
2022/11/22 03:01:29;;;;;;;39.28;31.23;;;;;;;5.33;59.42;99413.19;4984322;28;119764;-77
2022/11/22 03:03:55;;;;;;;40.78;31.77;;;;;;;5.32;60.35;99414.38;4954382;28;119802;-76
2022/11/22 03:06:20;;;;;;;41.42;31.95;;;;;;;5.37;60.05;99411.09;4969957;28;121190;-77
2022/11/22 03:08:47;;;;;;;39.03;31.38;;;;;;;5.39;59.51;99406.72;4970352;28;119993;-77
2022/11/22 03:11:14;;;;;;;38.67;30.67;;;;;;;5.33;59.40;99394.91;4970797;28;119391;-77
2022/11/22 03:13:41;;;;;;;38.80;31.13;;;;;;;5.37;59.74;99400.19;4984974;28;119660;-77
2022/11/22 03:16:07;;;;;;;37.73;30.67;;;;;;;5.30;59.73;99382.19;4988414;28;119639;-76
2022/11/22 03:18:34;;;;;;;38.80;30.75;;;;;;;5.37;59.80;99387.38;4994958;28;119591;-77
2022/11/22 03:21:05;;;;;;;39.92;30.50;;;;;;;5.38;59.61;99383.44;4987833;28;119397;-76
2022/11/22 03:23:35;;;;;;;38.58;30.80;;;;;;;5.45;60.13;99383.19;4988551;28;119313;-77
2022/11/22 03:26:09;;;;;;;40.92;31.77;;;;;;;5.49;60.45;99372.94;4970612;28;119733;-77
2022/11/22 03:28:34;;;;;;;40.00;30.65;;;;;;;5.51;60.28;99378.69;4969739;28;119357;-77
2022/11/22 03:31:18;;;;;;;40.15;31.52;;;;;;;5.50;60.19;99377.16;4983858;28;119507;-77
2022/11/22 03:33:44;;;;;;;41.40;32.33;;;;;;;5.57;60.53;99391.69;4970975;28;119633;-77
2022/11/22 03:36:19;;;;;;;40.35;32.15;;;;;;;5.58;60.39;99385.81;4990363;28;119301;-77
2022/11/22 03:39:06;;;;;;;41.00;32.13;;;;;;;5.63;60.37;99387.94;4936395;28;119753;-77
2022/11/22 03:41:31;;;;;;;39.92;31.23;;;;;;;5.68;60.56;99383.88;4956804;28;119952;-77
2022/11/22 03:43:57;;;;;;;41.00;31.27;;;;;;;5.72;60.63;99389.94;4966687;28;119722;-76
2022/11/22 03:46:23;;;;;;;39.43;30.70;;;;;;;5.76;60.53;99390.56;4976783;28;119558;-77
2022/11/22 03:49:07;;;;;;;41.78;32.42;;;;;;;5.80;60.61;99396.63;4982380;28;119901;-76
2022/11/22 03:51:33;;;;;;;42.47;32.63;;;;;;;5.83;60.86;99401.91;4984846;28;119437;-76
2022/11/22 03:53:58;;;;;;;42.27;31.77;;;;;;;5.77;60.78;99381.94;4965553;28;119553;-76
2022/11/22 03:56:24;;;;;;;40.30;31.03;;;;;;;5.89;60.92;99399.38;4961929;28;120778;-76
2022/11/22 03:58:51;;;;;;;41.58;31.92;;;;;;;5.92;60.88;99393.06;4960038;28;119573;-77
2022/11/22 04:01:16;;;;;;;39.10;31.60;;;;;;;5.92;60.70;99387.63;4975797;28;119564;-77
2022/11/22 04:03:42;;;;;;;39.17;31.20;;;;;;;5.93;60.70;99393.84;4989251;28;119870;-77
2022/11/22 04:06:08;;;;;;;38.57;30.93;;;;;;;5.99;60.80;99389.31;4958468;28;120015;-77
2022/11/22 04:08:34;;;;;;;39.43;31.10;;;;;;;6.00;60.86;99388.09;4985697;28;119461;-76
2022/11/22 04:11:35;;;;;;;40.55;31.52;;;;;;;5.95;60.92;99380.53;4965821;28;119315;-77
2022/11/22 04:16:45;;;;;;;40.55;32.00;;;;;;;6.02;61.02;99386.44;4987642;28;119388;-76
2022/11/22 04:19:10;;;;;;;40.50;31.90;;;;;;;6.03;61.10;99384.47;4969595;28;119426;-77
2022/11/22 04:21:36;;;;;;;39.97;31.87;;;;;;;6.03;61.23;99374.34;4984357;28;119528;-76
2022/11/22 04:26:51;;;;;;;40.33;30.87;;;;;;;6.07;60.84;99366.78;4970545;28;119907;-77
2022/11/22 04:29:17;;;;;;;38.47;30.88;;;;;;;6.15;61.16;99383.56;4991594;28;119306;-76
2022/11/22 04:34:27;;;;;;;37.45;30.58;;;;;;;6.10;60.45;99365.88;4990282;28;119647;-76
2022/11/22 04:36:53;;;;;;;38.77;30.73;;;;;;;6.13;60.78;99370.41;4976737;28;119840;-76
2022/11/22 04:39:19;;;;;;;38.67;30.20;;;;;;;6.07;60.57;99380.41;4970540;28;119833;-76
2022/11/22 04:41:45;;;;;;;40.78;31.00;;;;;;;6.11;60.64;99388.41;4980727;28;119708;-76
2022/11/22 04:46:58;;;;;;;38.15;30.17;;;;;;;6.10;61.27;99387.66;4990342;28;120072;-76
2022/11/22 04:49:23;;;;;;;37.97;30.42;;;;;;;6.14;61.14;99377.38;4972793;28;120071;-76
2022/11/22 04:54:38;;;;;;;36.78;30.08;;;;;;;6.13;60.78;99383.28;4966085;28;119919;-76
2022/11/22 04:57:04;;;;;;;37.17;29.23;;;;;;;6.18;60.43;99379.22;4985072;28;119612;-75
2022/11/22 04:59:29;;;;;;;38.13;29.73;;;;;;;6.18;60.98;99377.25;4985316;28;119938;-76
2022/11/22 05:01:55;;;;;;;37.75;29.27;;;;;;;6.20;60.96;99388.44;4968504;28;119302;-76
2022/11/22 05:04:21;;;;;;;36.20;29.50;;;;;;;6.23;61.25;99378.63;4970200;28;119613;-76
2022/11/22 05:06:46;;;;;;;35.30;29.20;;;;;;;6.20;60.90;99353.06;4989793;28;119467;-76
2022/11/22 05:09:12;;;;;;;36.80;29.27;;;;;;;6.27;60.92;99355.47;4994823;28;119266;-76
2022/11/22 05:11:38;;;;;;;38.58;29.92;;;;;;;6.26;61.02;99350.47;4960626;28;120551;-75
2022/11/22 05:14:04;;;;;;;41.45;30.80;;;;;;;6.28;61.02;99343.38;4969194;28;119591;-76
2022/11/22 05:16:29;;;;;;;36.20;29.13;;;;;;;6.28;61.35;99353.50;4989524;28;119536;-76
2022/11/22 05:18:58;;;;;;;37.67;28.87;;;;;;;6.28;61.16;99350.78;4985407;28;119860;-76
2022/11/22 05:21:32;;;;;;;36.67;28.42;;;;;;;6.27;61.00;99349.28;4955409;28;119627;-76
2022/11/22 05:23:57;;;;;;;38.58;29.80;;;;;;;6.30;61.99;99367.44;4991824;28;119694;-77
2022/11/22 05:26:31;;;;;;;37.17;28.83;;;;;;;6.33;61.84;99359.09;4990707;28;119203;-75
2022/11/22 05:29:04;;;;;;;35.90;28.80;;;;;;;6.33;61.55;99356.38;4982265;28;119500;-75
2022/11/22 05:31:32;;;;;;;37.38;28.15;;;;;;;6.37;61.48;99364.41;4991557;28;120357;-78
2022/11/22 05:33:58;;;;;;;36.88;29.45;;;;;;;6.37;61.61;99373.31;4971131;28;119129;-76
2022/11/22 05:36:26;;;;;;;35.50;28.42;;;;;;;6.40;61.51;99371.69;4985051;28;119953;-78
2022/11/22 05:38:55;;;;;;;36.17;28.77;;;;;;;6.38;61.54;99363.94;4983813;28;119382;-76
2022/11/22 05:41:22;;;;;;;36.22;28.65;;;;;;;6.40;61.94;99366.25;4990755;28;119658;-75
2022/11/22 05:43:48;;;;;;;35.27;28.03;;;;;;;6.40;61.21;99368.97;4988069;28;119206;-78
2022/11/22 05:46:18;;;;;;;37.63;27.83;;;;;;;6.45;61.95;99368.34;4970459;28;120409;-78
2022/11/22 05:48:45;;;;;;;38.70;28.23;;;;;;;6.43;61.39;99373.50;4991537;28;119381;-75
2022/11/22 05:51:17;;;;;;;35.47;27.95;;;;;;;6.41;61.64;99365.03;4954021;28;119367;-78
2022/11/22 05:53:44;;;;;;;36.65;27.00;;;;;;;6.44;61.82;99366.84;5000700;28;119317;-78
2022/11/22 05:56:15;;;;;;;34.33;26.17;;;;;;;6.52;61.50;99367.28;4968464;28;120721;-75
2022/11/22 05:58:42;;;;;;;33.97;26.85;;;;;;;6.54;61.52;99368.34;4992980;28;120423;-78
2022/11/22 06:01:10;;;;;;;34.60;27.70;;;;;;;6.50;61.25;99362.28;4984366;28;119682;-75
2022/11/22 06:03:36;;;;;;;33.85;26.60;;;;;;;6.51;61.25;99377.44;4990317;28;119268;-75
2022/11/22 06:06:06;;;;;;;33.15;27.30;;;;;;;6.59;61.59;99386.81;4971371;28;119740;-75
2022/11/22 06:08:34;;;;;;;32.65;26.20;;;;;;;6.60;61.64;99388.31;4963130;28;119527;-78
2022/11/22 06:11:05;;;;;;;30.50;25.92;;;;;;;6.61;61.55;99387.09;4983808;28;119783;-77
2022/11/22 06:13:36;;;;;;;31.88;25.75;;;;;;;6.62;61.15;99377.72;4981447;28;119581;-75
2022/11/22 06:16:03;;;;;;;34.50;26.45;;;;;;;6.59;61.86;99384.06;4994006;28;119310;-78
2022/11/22 06:18:48;;;;;;;31.83;26.35;;;;;;;6.56;61.22;99378.78;4978208;28;119422;-78
2022/11/22 06:21:22;;;;;;;32.17;25.98;;;;;;;6.59;61.17;99378.63;4990246;28;119879;-77
2022/11/22 06:23:47;;;;;;;32.30;26.20;;;;;;;6.60;61.23;99387.56;4989834;28;119616;-77
2022/11/22 06:26:18;;;;;;;33.15;26.02;;;;;;;6.59;61.34;99384.06;4966714;28;119220;-77
2022/11/22 06:28:46;;;;;;;33.13;25.67;;;;;;;6.61;61.66;99378.94;4972193;28;119591;-77
2022/11/22 06:31:13;;;;;;;32.85;26.10;;;;;;;6.66;61.59;99372.91;4966164;28;119403;-77
2022/11/22 06:33:44;;;;;;;36.22;26.13;;;;;;;6.67;61.37;99374.41;4987467;28;119228;-78
2022/11/22 06:36:13;;;;;;;37.08;26.05;;;;;;;6.67;61.62;99374.41;4990680;28;119445;-77
2022/11/22 06:38:40;;;;;;;37.40;26.25;;;;;;;6.67;61.67;99379.88;5000945;28;119433;-77
2022/11/22 06:41:08;;;;;;;34.53;25.85;;;;;;;6.69;61.66;99379.41;4949616;28;119223;-78
2022/11/22 06:43:36;;;;;;;32.57;25.73;;;;;;;6.65;61.35;99370.63;4974190;28;120122;-77
2022/11/22 06:46:02;;;;;;;31.42;25.15;;;;;;;6.68;61.35;99373.19;4981092;28;119686;-78
2022/11/22 06:48:29;;;;;;;33.70;25.45;;;;;;;6.68;61.34;99375.91;4990893;28;119719;-77
2022/11/22 06:50:59;;;;;;;32.03;24.80;;;;;;;6.75;61.82;99388.47;4983254;28;119364;-77
2022/11/22 06:53:30;;;;;;;31.63;25.40;;;;;;;6.78;61.41;99393.00;4989825;28;118603;-78
2022/11/22 06:56:07;;;;;;;31.25;24.90;;;;;;;6.70;61.63;99387.13;4952384;28;120233;-78
2022/11/22 06:58:38;;;;;;;31.40;25.50;;;;;;;6.70;61.60;99381.66;4996845;28;120658;-77
2022/11/22 07:01:11;;;;;;;32.33;25.63;;;;;;;6.80;62.10;99381.66;4996800;27;119357;-78
2022/11/22 07:03:39;;;;;;;29.88;25.00;;;;;;;6.84;61.68;99384.97;4967523;28;120835;-78
2022/11/22 07:06:06;;;;;;;29.73;24.70;;;;;;;6.87;61.63;99375.91;4957055;28;119560;-77
2022/11/22 07:08:32;;;;;;;30.58;24.90;;;;;;;6.90;61.75;99381.22;4963823;28;122236;-77
2022/11/22 07:11:03;;;;;;;31.90;25.75;;;;;;;6.93;61.53;99371.34;4966349;28;119640;-77
2022/11/22 07:13:29;;;;;;;31.27;25.65;;;;;;;6.94;61.64;99381.03;4965310;28;119193;-77
2022/11/22 07:16:20;;;;;;;33.10;25.40;;;;;;;6.89;61.74;99373.50;4941639;28;120122;-78
2022/11/22 07:18:48;;;;;;;32.60;25.33;;;;;;;6.97;62.00;99382.84;4984188;28;119531;-77
2022/11/22 07:21:15;;;;;;;33.53;26.05;;;;;;;6.92;61.39;99389.69;4984753;28;119419;-77
2022/11/22 07:23:42;;;;;;;33.23;24.90;;;;;;;7.01;61.65;99402.53;4983732;28;119603;-77
2022/11/22 07:26:09;;;;;;;31.87;25.57;;;;;;;7.00;62.26;99401.78;4982214;28;119688;-78
2022/11/22 07:28:36;;;;;;;32.58;25.63;;;;;;;7.03;61.99;99400.09;4964985;28;119564;-77
2022/11/22 07:31:05;;;;;;;31.45;26.33;;;;;;;7.04;62.04;99391.47;4985346;28;119284;-77
2022/11/22 07:33:31;;;;;;;32.22;26.80;;;;;;;7.14;62.15;99402.38;4981201;28;121469;-77
2022/11/22 07:36:18;;;;;;;32.70;26.83;;;;;;;7.19;61.93;99401.75;4970058;28;119299;-77
2022/11/22 07:38:45;;;;;;;33.43;26.77;;;;;;;7.23;61.82;99396.91;4985673;28;119630;-78
2022/11/22 07:41:11;;;;;;;34.20;26.85;;;;;;;7.23;61.70;99388.72;4986688;28;119465;-77
2022/11/22 07:43:36;;;;;;;32.30;26.67;;;;;;;7.19;61.69;99397.06;4987303;28;119644;-78
2022/11/22 07:46:05;;;;;;;33.95;27.00;;;;;;;7.25;61.94;99400.69;4984709;28;119265;-76
2022/11/22 07:48:31;;;;;;;31.88;26.15;;;;;;;7.24;61.88;99390.22;4965312;28;119554;-75
2022/11/22 07:51:06;;;;;;;32.03;26.27;;;;;;;7.32;61.83;99389.44;4983118;28;119912;-76
2022/11/22 07:53:33;;;;;;;31.50;25.33;;;;;;;7.35;61.51;99382.34;4983152;28;121043;-76
2022/11/22 07:56:03;;;;;;;33.63;26.58;;;;;;;7.37;61.91;99382.63;4983589;28;119421;-76
2022/11/22 07:58:29;;;;;;;32.22;26.40;;;;;;;7.39;61.99;99377.47;4983109;28;119365;-76
2022/11/22 08:00:55;;;;;;;31.47;26.07;;;;;;;7.41;62.23;99377.00;4984437;28;119405;-76
2022/11/22 08:03:23;;;;;;;32.72;25.58;;;;;;;7.42;61.47;99373.06;4986334;28;119426;-75
2022/11/22 08:05:49;;;;;;;32.63;26.17;;;;;;;7.43;61.89;99377.28;4968194;28;120154;-76
2022/11/22 08:08:14;;;;;;;31.10;26.03;;;;;;;7.38;61.90;99376.72;4970903;28;119173;-75
2022/11/22 08:10:40;;;;;;;35.13;27.75;;;;;;;7.42;61.84;99375.78;4979592;28;119737;-76
2022/11/22 08:13:06;;;;;;;35.72;28.30;;;;;;;7.41;62.14;99379.72;4986125;28;119300;-76
2022/11/22 08:15:32;;;;;;;33.67;26.85;;;;;;;7.41;62.35;99385.19;4988290;28;119736;-76
2022/11/22 08:18:21;;;;;;;33.17;27.00;;;;;;;7.43;61.88;99385.47;4978015;28;120679;-76
2022/11/22 08:20:47;;;;;;;32.88;26.85;;;;;;;7.43;62.08;99377.28;4985165;28;119653;-76
2022/11/22 08:23:12;;;;;;;35.40;27.73;;;;;;;7.52;62.65;99386.19;4989061;28;121015;-77
2022/11/22 08:25:38;;;;;;;33.60;27.35;;;;;;;7.52;62.28;99379.97;4968428;28;120816;-76
2022/11/22 08:28:15;;;;;;;35.45;28.20;;;;;;;7.53;62.60;99376.03;4953963;28;119807;-77
2022/11/22 08:31:05;;;;;;;33.50;28.58;;;;;;;7.53;62.14;99376.03;4960004;28;120095;-76
2022/11/22 08:33:31;;;;;;;36.47;28.13;;;;;;;7.53;62.23;99365.88;4968707;28;119369;-76
2022/11/22 08:35:57;;;;;;;34.75;28.58;;;;;;;7.54;62.61;99363.91;4988595;28;119158;-76
2022/11/22 08:38:23;;;;;;;37.03;28.75;;;;;;;7.60;62.19;99370.28;4966278;28;119724;-77
2022/11/22 08:40:49;;;;;;;34.20;27.85;;;;;;;7.52;61.98;99358.16;4987153;28;119499;-75
2022/11/22 08:43:15;;;;;;;34.58;28.25;;;;;;;7.57;62.71;99355.59;4987447;28;119621;-76
2022/11/22 08:45:41;;;;;;;34.33;28.10;;;;;;;7.61;61.94;99360.88;4985967;28;120225;-77
2022/11/22 08:48:07;;;;;;;34.95;28.60;;;;;;;7.68;62.13;99361.28;4992886;28;119681;-76
2022/11/22 08:50:32;;;;;;;35.40;27.70;;;;;;;7.69;61.82;99356.56;4983353;28;120270;-77
2022/11/22 08:53:01;;;;;;;34.97;28.42;;;;;;;7.68;61.86;99355.06;4986775;28;119384;-75
2022/11/22 08:55:27;;;;;;;35.30;28.83;;;;;;;7.69;62.23;99359.31;4952095;28;119379;-76
2022/11/22 08:57:57;;;;;;;34.22;27.98;;;;;;;7.65;61.32;99362.19;4985055;28;119840;-75
2022/11/22 09:00:23;;;;;;;34.17;28.27;;;;;;;7.67;62.66;99369.94;4986801;28;119909;-76
2022/11/22 09:02:48;;;;;;;36.65;29.02;;;;;;;7.65;62.11;99377.81;4987176;28;119435;-76
2022/11/22 09:05:52;;;;;;;36.50;29.77;;;;;;;7.63;62.59;99386.47;4973647;28;119803;-76
2022/11/22 09:08:18;;;;;;;34.85;28.48;;;;;;;7.61;62.40;99385.44;4988007;28;119703;-76
2022/11/22 09:11:04;;;;;;;36.40;29.52;;;;;;;7.58;61.98;99383.63;4965681;28;119523;-76
2022/11/22 09:13:30;;;;;;;35.80;30.30;;;;;;;7.57;62.18;99379.34;4968165;28;119883;-76
2022/11/22 09:16:07;;;;;;;37.63;29.98;;;;;;;7.56;62.35;99380.56;4987434;28;119700;-76
2022/11/22 09:18:33;;;;;;;38.85;30.33;;;;;;;7.58;63.08;99383.63;4987561;28;119738;-76
2022/11/22 09:21:00;;;;;;;37.17;30.73;;;;;;;7.57;63.26;99384.81;4985579;28;119701;-76
2022/11/22 09:23:26;;;;;;;34.42;29.27;;;;;;;7.62;62.55;99384.97;4987300;28;119435;-76
2022/11/22 09:26:03;;;;;;;36.30;29.27;;;;;;;7.62;62.15;99395.13;4954871;28;120815;-75
2022/11/22 09:28:29;;;;;;;38.10;30.17;;;;;;;7.63;62.74;99396.63;4968956;28;119638;-77
2022/11/22 09:31:10;;;;;;;36.05;29.25;;;;;;;7.64;62.62;99387.22;4968101;28;119648;-75
2022/11/22 09:33:38;;;;;;;36.90;30.20;;;;;;;7.59;62.03;99376.94;4988419;28;119300;-76
2022/11/22 09:36:06;;;;;;;38.13;30.83;;;;;;;7.66;62.90;99391.00;4969778;28;120196;-75
2022/11/22 09:38:35;;;;;;;37.97;29.95;;;;;;;7.66;62.53;99390.25;4986145;28;120352;-76
2022/11/22 09:41:16;;;;;;;38.42;30.38;;;;;;;7.65;62.67;99389.50;4968355;28;120013;-76
2022/11/22 09:43:57;;;;;;;37.83;30.05;;;;;;;7.65;62.29;99388.75;4968587;28;120811;-76
2022/11/22 09:46:44;;;;;;;36.07;29.53;;;;;;;7.64;62.46;99381.78;4989149;28;119400;-76
2022/11/22 09:49:25;;;;;;;36.67;30.23;;;;;;;7.61;62.54;99388.16;4991664;28;119849;-78
2022/11/22 09:52:04;;;;;;;37.10;29.88;;;;;;;7.59;62.15;99390.59;4954690;28;119304;-77
2022/11/22 09:54:39;;;;;;;38.28;31.00;;;;;;;7.57;61.92;99382.09;4969429;28;119540;-78
2022/11/22 09:57:12;;;;;;;36.83;30.10;;;;;;;7.57;62.58;99382.88;4992817;28;119555;-78
2022/11/22 09:59:43;;;;;;;38.65;30.35;;;;;;;7.54;62.15;99372.09;4988749;28;119721;-78
2022/11/22 10:02:21;;;;;;;36.90;30.27;;;;;;;7.50;62.58;99376.97;4986184;28;119708;-78
2022/11/22 10:04:53;;;;;;;38.70;30.90;;;;;;;7.53;61.92;99381.50;4963534;28;119898;-78
2022/11/22 10:07:49;;;;;;;40.30;32.03;;;;;;;7.50;62.57;99379.69;4964093;28;119981;-78
2022/11/22 10:10:42;;;;;;;36.22;30.20;;;;;;;7.46;62.64;99381.84;4983725;28;120436;-77
2022/11/22 10:13:52;;;;;;;37.80;29.87;;;;;;;7.46;62.38;99387.28;4957803;28;119486;-78
2022/11/22 10:16:31;;;;;;;40.17;30.85;;;;;;;7.48;62.09;99390.31;4983197;28;119366;-77
2022/11/22 10:19:09;;;;;;;38.55;30.63;;;;;;;7.46;62.52;99390.78;4988837;28;119732;-76
2022/11/22 10:21:55;;;;;;;38.05;30.52;;;;;;;7.46;62.61;99395.47;4970324;28;120112;-76
2022/11/22 10:24:20;;;;;;;39.25;31.27;;;;;;;7.41;62.55;99375.03;4963849;28;119867;-76
2022/11/22 10:27:12;;;;;;;39.47;30.77;;;;;;;7.43;62.42;99382.75;4955165;28;119472;-77
2022/11/22 10:29:55;;;;;;;41.23;31.63;;;;;;;7.39;62.80;99382.91;4962630;28;120637;-77
2022/11/22 10:32:33;;;;;;;40.53;32.03;;;;;;;7.45;62.40;99380.31;4977672;28;119811;-76
2022/11/22 10:35:22;;;;;;;42.42;32.00;;;;;;;7.49;62.33;99386.38;4974863;28;119146;-76
2022/11/22 10:38:06;;;;;;;40.73;32.93;;;;;;;7.52;62.03;99393.63;4988278;28;119355;-76
2022/11/22 10:41:16;;;;;;;43.72;33.55;;;;;;;7.50;62.80;99387.88;4967593;28;119621;-77
2022/11/22 10:44:00;;;;;;;41.95;32.63;;;;;;;7.52;62.67;99391.66;4947373;28;120062;-76
2022/11/22 10:46:34;;;;;;;43.08;34.05;;;;;;;7.52;62.84;99391.66;4988275;28;121851;-76
2022/11/22 10:49:43;;;;;;;42.42;33.67;;;;;;;7.51;62.10;99400.31;4966749;28;119827;-76
2022/11/22 10:52:25;;;;;;;44.58;34.53;;;;;;;7.44;62.64;99397.91;4964302;28;119862;-76
2022/11/22 10:55:09;;;;;;;44.25;34.83;;;;;;;7.42;62.46;99398.38;4985130;28;120217;-75
2022/11/22 10:57:56;;;;;;;44.72;33.70;;;;;;;7.39;62.45;99413.69;4982107;28;119546;-76
2022/11/22 11:00:24;;;;;;;45.03;33.58;;;;;;;7.37;62.62;99423.53;4984505;28;120043;-76
2022/11/22 11:03:08;;;;;;;44.03;33.40;;;;;;;7.35;62.70;99407.63;4925273;28;120253;-77
2022/11/22 11:05:45;;;;;;;40.92;32.65;;;;;;;7.28;62.96;99397.03;4951294;28;119872;-77
2022/11/22 11:08:25;;;;;;;42.10;33.05;;;;;;;7.28;63.29;99405.22;4986278;28;120455;-76
2022/11/22 11:10:51;;;;;;;41.60;32.53;;;;;;;7.32;63.07;99410.50;4983636;28;119724;-76
2022/11/22 11:13:27;;;;;;;43.57;33.97;;;;;;;7.31;62.98;99403.53;4950390;28;120782;-76
2022/11/22 11:15:55;;;;;;;41.13;32.58;;;;;;;7.31;63.08;99404.28;4983977;28;119881;-76
2022/11/22 11:18:41;;;;;;;47.00;33.78;;;;;;;7.34;62.95;99391.72;4982710;28;119592;-76
2022/11/22 11:21:10;;;;;;;41.90;32.67;;;;;;;7.30;63.05;99402.78;4983234;28;119744;-77
2022/11/22 11:23:36;;;;;;;44.97;34.83;;;;;;;7.26;63.46;99413.09;4964319;28;119745;-75
2022/11/22 11:26:27;;;;;;;45.55;34.72;;;;;;;7.25;63.23;99414.31;4982983;28;119655;-77
2022/11/22 11:29:17;;;;;;;45.92;34.28;;;;;;;7.26;63.36;99420.53;4984438;28;120340;-77
2022/11/22 11:31:43;;;;;;;49.15;36.10;;;;;;;7.27;63.31;99416.59;4955157;28;119858;-77
2022/11/22 11:34:22;;;;;;;43.72;34.22;;;;;;;7.29;63.12;99419.59;4968837;28;119241;-78
2022/11/22 11:36:49;;;;;;;45.20;33.60;;;;;;;7.29;63.37;99425.06;4971101;28;119434;-78
2022/11/22 11:39:20;;;;;;;44.38;34.88;;;;;;;7.33;63.91;99428.38;4990398;28;119370;-77
2022/11/22 11:41:46;;;;;;;44.00;34.40;;;;;;;7.32;63.04;99432.31;4990336;28;119664;-78
2022/11/22 11:44:31;;;;;;;44.20;33.75;;;;;;;7.26;63.38;99425.97;4971824;28;119946;-77
2022/11/22 11:46:58;;;;;;;46.20;34.42;;;;;;;7.27;63.50;99427.50;4972241;28;119994;-77